Time;durP1;ratioP1;P1;durP2;ratioP2;P2;SDS_P1;SDS_P2;PMS_P1;PMS_P2;Temp;Humidity;BMP_temperature;BMP_pressure;BME280_temperature;BME280_humidity;BME280_pressure;Samples;Min_cycle;Max_cycle;Signal;HPM_P1;HPM_P2
2021/06/25 00:02:02;;;;;;;26.17;5.83;;;;;;;22.41;100.00;100825.66;1815024;79;20876;-83
2021/06/25 00:04:28;;;;;;;24.65;5.58;;;;;;;22.37;100.00;100828.02;1814816;79;21038;-84
2021/06/25 00:06:54;;;;;;;21.50;5.67;;;;;;;22.34;100.00;100825.36;1815169;79;20821;-84
2021/06/25 00:09:20;;;;;;;23.32;6.25;;;;;;;22.29;100.00;100820.06;1814940;79;21821;-82
2021/06/25 00:11:46;;;;;;;19.70;5.33;;;;;;;22.28;100.00;100828.64;1815136;79;20873;-81
2021/06/25 00:14:13;;;;;;;24.63;5.70;;;;;;;22.23;100.00;100823.56;1815083;79;21003;-84
2021/06/25 00:16:39;;;;;;;18.17;5.95;;;;;;;22.23;100.00;100828.25;1815217;79;21034;-84
2021/06/25 00:19:05;;;;;;;21.30;5.90;;;;;;;22.20;100.00;100826.98;1815054;79;21096;-84
2021/06/25 00:21:31;;;;;;;18.17;5.45;;;;;;;22.17;100.00;100830.96;1815255;79;21093;-84
2021/06/25 00:23:57;;;;;;;13.98;5.25;;;;;;;22.14;100.00;100833.77;1814975;79;20884;-81
2021/06/25 00:26:23;;;;;;;21.10;5.17;;;;;;;22.09;100.00;100839.47;1815082;79;21038;-83
2021/06/25 00:28:49;;;;;;;24.07;6.22;;;;;;;21.97;100.00;100832.48;1792578;79;20860;-83
2021/06/25 00:31:15;;;;;;;20.55;6.53;;;;;;;21.89;100.00;100835.53;1815159;78;21680;-81
2021/06/25 00:33:40;;;;;;;29.65;6.97;;;;;;;21.85;100.00;100828.28;1815112;79;21077;-83
2021/06/25 00:36:06;;;;;;;23.75;5.95;;;;;;;21.77;100.00;100826.63;1815054;78;20939;-88
2021/06/25 00:38:32;;;;;;;22.90;6.55;;;;;;;21.73;100.00;100824.29;1814487;79;21713;-85
2021/06/25 00:40:58;;;;;;;19.25;6.17;;;;;;;21.70;100.00;100822.20;1827534;77;21225;-83
2021/06/25 00:43:24;;;;;;;22.80;5.60;;;;;;;21.67;100.00;100816.01;1815116;79;20877;-81
2021/06/25 00:45:50;;;;;;;22.35;5.45;;;;;;;21.64;100.00;100819.98;1815095;79;21989;-84
2021/06/25 00:48:16;;;;;;;15.03;5.75;;;;;;;21.62;100.00;100814.02;1815091;79;20884;-81
2021/06/25 00:50:44;;;;;;;20.55;5.78;;;;;;;21.59;100.00;100819.61;1815075;79;20955;-84
2021/06/25 00:53:10;;;;;;;20.52;6.20;;;;;;;21.58;100.00;100823.47;1724411;83;21026;-82
2021/06/25 00:55:42;;;;;;;16.77;6.05;;;;;;;21.58;100.00;100823.47;1724715;83;20879;-82
2021/06/25 00:58:14;;;;;;;20.08;6.60;;;;;;;21.58;100.00;100823.47;1724452;83;21471;-81
2021/06/25 01:00:41;;;;;;;20.02;6.90;;;;;;;21.56;100.00;100818.91;1706081;84;21617;-83
2021/06/25 01:03:07;;;;;;;24.80;6.40;;;;;;;21.49;100.00;100818.02;1679354;85;21099;-86
2021/06/25 01:05:34;;;;;;;20.85;7.15;;;;;;;21.45;100.00;100819.81;1709068;84;22134;-83
2021/06/25 01:08:00;;;;;;;17.55;6.03;;;;;;;21.41;100.00;100830.37;1679460;85;21035;-82
2021/06/25 01:10:26;;;;;;;19.98;6.42;;;;;;;21.38;100.00;100831.03;1709350;84;21075;-81
2021/06/25 01:12:52;;;;;;;28.00;8.38;;;;;;;21.29;100.00;100824.17;1679356;85;21039;-83
2021/06/25 01:15:18;;;;;;;24.85;5.83;;;;;;;21.25;100.00;100820.48;1709269;84;21070;-84
2021/06/25 01:17:45;;;;;;;26.37;6.75;;;;;;;21.20;100.00;100822.02;1679506;85;20952;-84
2021/06/25 01:20:16;;;;;;;28.27;7.33;;;;;;;21.18;100.00;100816.88;1709193;84;21027;-82
2021/06/25 01:22:43;;;;;;;23.83;7.45;;;;;;;21.18;100.00;100813.31;1679395;85;21519;-84
2021/06/25 01:25:18;;;;;;;19.73;6.20;;;;;;;21.17;100.00;100819.94;1709193;84;21070;-82
2021/06/25 01:27:48;;;;;;;20.30;6.65;;;;;;;21.17;100.00;100819.94;1679371;85;21043;-82
2021/06/25 01:30:22;;;;;;;20.43;6.70;;;;;;;21.15;100.00;100813.42;1709393;84;21039;-83
2021/06/25 01:32:49;;;;;;;23.92;6.47;;;;;;;21.13;100.00;100814.88;1679339;85;21094;-84
2021/06/25 01:35:15;;;;;;;24.27;7.03;;;;;;;21.13;100.00;100810.20;1709355;84;21145;-83
2021/06/25 01:37:42;;;;;;;20.32;6.97;;;;;;;21.08;100.00;100804.30;1673534;85;21058;-83
2021/06/25 01:40:14;;;;;;;26.27;7.83;;;;;;;21.03;100.00;100809.98;1659989;86;21023;-87
2021/06/25 01:42:43;;;;;;;20.82;6.85;;;;;;;21.00;100.00;100809.80;1659947;86;20985;-83
2021/06/25 01:45:20;;;;;;;18.73;6.65;;;;;;;20.95;100.00;100808.62;1673579;85;21488;-83
2021/06/25 01:47:48;;;;;;;17.87;6.83;;;;;;;20.92;100.00;100804.59;1615150;88;21350;-84
2021/06/25 01:50:21;;;;;;;21.73;7.15;;;;;;;20.92;100.00;100798.31;1611499;88;21126;-83
2021/06/25 01:52:59;;;;;;;15.93;6.78;;;;;;;20.91;100.00;100804.33;1590780;90;21569;-83
2021/06/25 01:55:28;;;;;;;23.98;5.92;;;;;;;20.91;100.00;100796.11;1633449;87;21498;-82
2021/06/25 01:57:55;;;;;;;20.68;6.95;;;;;;;20.93;100.00;100798.54;1609301;89;21060;-86
2021/06/25 02:00:22;;;;;;;15.23;6.10;;;;;;;20.96;100.00;100799.27;1608979;88;21970;-82
2021/06/25 02:02:48;;;;;;;25.48;7.62;;;;;;;20.96;100.00;100793.78;1618150;88;21047;-82
2021/06/25 02:05:16;;;;;;;18.55;6.85;;;;;;;20.98;100.00;100789.59;1619946;88;21027;-83
2021/06/25 02:07:42;;;;;;;16.90;6.60;;;;;;;21.00;100.00;100787.88;1624008;88;21086;-80
2021/06/25 02:10:11;;;;;;;26.48;7.47;;;;;;;21.02;100.00;100796.02;1605843;88;21032;-84
2021/06/25 02:12:39;;;;;;;23.98;7.08;;;;;;;21.06;100.00;100782.46;1602320;89;21288;-82
2021/06/25 02:15:08;;;;;;;23.00;8.68;;;;;;;21.10;100.00;100779.33;1608655;86;21059;-83
2021/06/25 02:17:35;;;;;;;16.90;7.10;;;;;;;21.17;100.00;100787.04;1684098;84;21125;-82
2021/06/25 02:20:01;;;;;;;23.65;8.03;;;;;;;21.25;100.00;100787.02;1677888;84;21041;-83
2021/06/25 02:22:27;;;;;;;29.70;8.75;;;;;;;21.31;100.00;100792.56;1676117;84;21073;-84
2021/06/25 02:24:53;;;;;;;29.35;8.43;;;;;;;21.36;100.00;100789.42;1677613;84;21956;-84
2021/06/25 02:27:19;;;;;;;18.15;7.45;;;;;;;21.45;100.00;100791.59;1671466;84;20962;-81
2021/06/25 02:29:45;;;;;;;25.45;7.78;;;;;;;21.51;100.00;100788.91;1696447;84;21111;-83
2021/06/25 02:32:10;;;;;;;26.37;7.45;;;;;;;21.59;100.00;100789.98;1707291;84;21513;-83
2021/06/25 02:34:36;;;;;;;24.60;8.30;;;;;;;21.70;100.00;100785.75;1707167;84;20898;-83
2021/06/25 02:37:03;;;;;;;21.02;7.55;;;;;;;21.84;100.00;100786.89;1707460;84;21759;-83
2021/06/25 02:39:29;;;;;;;24.23;7.95;;;;;;;21.93;100.00;100784.33;1704472;84;21428;-83
2021/06/25 02:41:54;;;;;;;26.17;7.75;;;;;;;22.07;100.00;100771.74;1704558;84;21694;-83
2021/06/25 02:44:21;;;;;;;24.80;7.95;;;;;;;22.26;100.00;100765.02;1682973;82;20868;-83
2021/06/25 02:46:47;;;;;;;16.52;8.33;;;;;;;22.47;100.00;100762.26;1741370;82;21038;-83
2021/06/25 02:49:13;;;;;;;18.00;7.67;;;;;;;22.67;100.00;100751.24;1729301;82;21104;-82
2021/06/25 02:51:38;;;;;;;17.98;6.92;;;;;;;22.88;100.00;100749.02;1732113;82;20962;-84
2021/06/25 02:54:04;;;;;;;19.20;7.33;;;;;;;23.19;100.00;100755.44;1725234;82;21014;-84
2021/06/25 02:56:30;;;;;;;25.95;7.85;;;;;;;23.53;100.00;100746.52;1742968;80;20999;-83
2021/06/25 02:58:57;;;;;;;24.52;7.78;;;;;;;23.82;100.00;100748.25;1780581;79;20942;-84
2021/06/25 03:01:22;;;;;;;23.47;7.70;;;;;;;24.15;100.00;100749.48;1808848;79;21876;-82
2021/06/25 03:03:48;;;;;;;21.35;7.78;;;;;;;24.42;100.00;100743.80;1809355;79;20868;-85
2021/06/25 03:06:14;;;;;;;17.98;7.83;;;;;;;24.64;100.00;100740.25;1797234;79;20884;-86
2021/06/25 03:08:40;;;;;;;17.17;7.03;;;;;;;24.81;100.00;100744.08;1768453;79;21059;-86
2021/06/25 03:11:06;;;;;;;18.15;7.33;;;;;;;25.02;100.00;100733.39;1809475;79;20959;-85
2021/06/25 03:13:32;;;;;;;21.55;6.90;;;;;;;25.28;100.00;100740.59;1781043;79;21113;-83
2021/06/25 03:15:58;;;;;;;18.73;6.87;;;;;;;25.64;100.00;100736.52;1779162;79;21460;-84
2021/06/25 03:18:24;;;;;;;15.53;6.50;;;;;;;26.01;100.00;100743.33;1785805;79;20956;-84
2021/06/25 03:20:50;;;;;;;20.60;6.95;;;;;;;26.27;100.00;100744.08;1777503;79;21003;-87
2021/06/25 03:23:17;;;;;;;23.60;7.40;;;;;;;26.56;100.00;100735.02;1765334;80;21046;-84
2021/06/25 03:25:43;;;;;;;15.90;6.58;;;;;;;26.95;100.00;100732.98;1782514;79;21119;-84
2021/06/25 03:28:09;;;;;;;20.02;7.92;;;;;;;27.28;100.00;100729.41;1777784;79;20939;-84
2021/06/25 03:30:36;;;;;;;25.80;7.45;;;;;;;27.27;100.00;100725.05;1777607;80;20973;-82
2021/06/25 03:33:03;;;;;;;20.80;6.92;;;;;;;27.18;100.00;100726.10;1786533;79;21028;-83
2021/06/25 03:35:29;;;;;;;18.23;7.17;;;;;;;27.07;100.00;100720.93;1780742;79;21420;-84
2021/06/25 03:37:56;;;;;;;15.30;6.85;;;;;;;26.96;100.00;100718.56;1809882;78;21091;-82
2021/06/25 03:40:28;;;;;;;16.93;6.42;;;;;;;26.90;100.00;100712.53;1809387;78;20977;-91
2021/06/25 03:42:54;;;;;;;16.27;6.85;;;;;;;26.94;100.00;100705.67;1805510;78;26489;-81
2021/06/25 03:45:20;;;;;;;19.55;7.45;;;;;;;26.94;100.00;100701.52;1776436;79;20991;-82
2021/06/25 03:47:46;;;;;;;22.93;7.58;;;;;;;27.08;100.00;100694.85;1807132;78;20924;-84
2021/06/25 03:50:12;;;;;;;17.37;6.87;;;;;;;27.54;100.00;100700.36;1809532;78;21159;-85
2021/06/25 03:52:39;;;;;;;15.78;7.25;;;;;;;28.11;100.00;100692.06;1808198;78;21487;-85
2021/06/25 03:55:10;;;;;;;16.62;7.10;;;;;;;28.75;100.00;100684.48;1809590;78;20984;-87
2021/06/25 03:57:38;;;;;;;17.10;6.47;;;;;;;29.37;100.00;100687.99;1796564;79;21031;-83
2021/06/25 04:00:08;;;;;;;18.20;7.28;;;;;;;29.92;100.00;100691.33;1732287;82;21317;-85
2021/06/25 04:02:35;;;;;;;20.05;7.83;;;;;;;30.49;100.00;100694.34;1716479;82;21839;-85
2021/06/25 04:05:01;;;;;;;15.00;7.78;;;;;;;30.98;100.00;100686.50;1710043;83;21097;-82
2021/06/25 04:07:27;;;;;;;22.42;7.65;;;;;;;31.37;100.00;100687.89;1715285;83;20920;-84
2021/06/25 04:09:54;;;;;;;16.25;7.90;;;;;;;31.90;100.00;100682.02;1729660;83;21195;-83
2021/06/25 04:12:20;;;;;;;16.07;7.22;;;;;;;32.18;100.00;100685.30;1704341;83;21578;-85
2021/06/25 04:14:46;;;;;;;13.88;7.28;;;;;;;32.53;100.00;100688.52;1728886;83;21009;-84
2021/06/25 04:17:12;;;;;;;21.15;7.08;;;;;;;32.95;100.00;100688.61;1727132;83;21030;-84
2021/06/25 04:19:38;;;;;;;18.17;6.35;;;;;;;33.50;100.00;100679.94;1720686;82;20915;-85
2021/06/25 04:22:04;;;;;;;16.93;7.25;;;;;;;34.31;98.48;100688.61;1714179;83;21652;-85
2021/06/25 04:24:30;;;;;;;10.20;6.25;;;;;;;34.31;98.48;100688.61;1718639;83;21003;-84
2021/06/25 04:26:56;;;;;;;19.30;6.30;;;;;;;34.69;94.64;100687.09;1730180;83;21358;-85
2021/06/25 04:29:22;;;;;;;13.90;6.03;;;;;;;35.02;89.15;100686.14;1730123;83;21019;-85
2021/06/25 04:31:53;;;;;;;18.52;5.92;;;;;;;35.30;90.06;100691.11;1700357;82;21703;-82
2021/06/25 04:34:16;;;;;;;15.60;6.50;;;;;;;35.39;83.19;100682.14;1714880;83;21085;-86
2021/06/25 04:36:42;;;;;;;11.12;5.70;;;;;;;35.34;82.77;100682.02;1715357;83;21022;-86
2021/06/25 04:39:09;;;;;;;19.35;6.33;;;;;;;34.78;80.82;100668.53;1723629;82;21133;-83
2021/06/25 04:41:35;;;;;;;21.87;6.37;;;;;;;34.13;85.12;100666.48;1734955;82;21040;-88
2021/06/25 04:44:02;;;;;;;19.73;6.25;;;;;;;33.95;87.35;100665.89;1734926;82;21064;-85
2021/06/25 04:46:28;;;;;;;12.82;5.80;;;;;;;33.80;89.04;100665.28;1734801;82;21520;-86
2021/06/25 04:48:55;;;;;;;16.67;6.28;;;;;;;33.65;88.33;100668.23;1735136;82;21044;-86
2021/06/25 04:51:21;;;;;;;18.30;6.87;;;;;;;33.91;93.18;100659.74;1734957;82;21557;-83
2021/06/25 04:53:47;;;;;;;14.33;6.10;;;;;;;34.55;86.42;100651.70;1735128;82;20890;-83
2021/06/25 04:56:13;;;;;;;12.35;6.35;;;;;;;34.58;82.40;100648.84;1747474;79;21640;-85
2021/06/25 04:58:39;;;;;;;30.97;6.83;;;;;;;34.65;86.71;100642.36;1776585;79;20833;-85
2021/06/25 05:01:05;;;;;;;22.15;6.42;;;;;;;35.19;82.90;100642.25;1798857;79;20959;-93
2021/06/25 05:03:33;;;;;;;20.68;5.80;;;;;;;35.87;79.07;100641.55;1799308;79;21161;-84
2021/06/25 05:05:58;;;;;;;13.35;5.62;;;;;;;36.43;73.37;100631.70;1798648;79;21521;-83
2021/06/25 05:08:24;;;;;;;23.75;5.42;;;;;;;36.86;69.46;100639.70;1799221;79;20893;-84
2021/06/25 05:10:50;;;;;;;11.00;6.15;;;;;;;37.03;68.08;100642.11;1799092;79;20944;-84
2021/06/25 05:13:17;;;;;;;15.53;5.53;;;;;;;37.44;64.23;100634.17;1803414;79;20873;-82
2021/06/25 05:15:43;;;;;;;19.23;6.10;;;;;;;37.62;64.91;100635.09;1798734;79;21188;-84
2021/06/25 05:18:19;;;;;;;17.62;5.60;;;;;;;37.81;59.07;100620.07;1798910;79;20912;-85
2021/06/25 05:20:47;;;;;;;9.80;4.83;;;;;;;38.01;57.32;100642.42;1798820;79;21039;-83
2021/06/25 05:23:15;;;;;;;12.35;4.75;;;;;;;38.20;54.95;100642.03;1799143;79;21020;-84
2021/06/25 05:25:42;;;;;;;8.20;5.20;;;;;;;38.27;53.19;100641.82;1799488;79;21043;-85
2021/06/25 05:28:09;;;;;;;16.52;5.10;;;;;;;38.43;55.10;100642.97;1790808;79;21131;-90
2021/06/25 05:30:37;;;;;;;13.18;5.30;;;;;;;38.61;52.28;100643.16;1755632;80;21698;-85
2021/06/25 05:33:05;;;;;;;18.32;5.40;;;;;;;38.54;51.86;100639.97;1777994;80;21539;-84
2021/06/25 05:35:33;;;;;;;10.28;5.08;;;;;;;38.57;50.74;100636.87;1777924;80;21074;-85
2021/06/25 05:38:13;;;;;;;10.65;5.42;;;;;;;38.76;52.09;100635.80;1778245;80;20994;-85
2021/06/25 05:40:37;;;;;;;10.38;5.03;;;;;;;38.98;48.64;100640.77;1811899;78;20986;-86
2021/06/25 05:43:04;;;;;;;10.58;4.90;;;;;;;38.99;48.85;100630.42;1815326;79;21629;-86
2021/06/25 05:45:32;;;;;;;14.47;5.58;;;;;;;39.28;51.99;100633.02;1815268;79;20959;-86
2021/06/25 05:47:58;;;;;;;13.15;5.33;;;;;;;39.84;49.18;100632.83;1815341;79;20912;-83
2021/06/25 05:50:24;;;;;;;11.22;5.00;;;;;;;40.18;49.98;100636.17;1815338;78;20963;-87
2021/06/25 05:52:51;;;;;;;11.38;5.20;;;;;;;40.87;45.42;100638.41;1815281;79;20984;-85
2021/06/25 05:55:17;;;;;;;16.23;5.67;;;;;;;40.84;45.04;100636.52;1814992;79;21062;-86
2021/06/25 05:57:45;;;;;;;13.55;5.75;;;;;;;40.79;43.19;100643.57;1792359;79;20999;-86
2021/06/25 06:00:11;;;;;;;16.75;5.90;;;;;;;40.59;43.11;100641.17;1814932;79;21133;-84
2021/06/25 06:02:37;;;;;;;11.57;5.65;;;;;;;41.26;45.45;100642.37;1815389;78;20983;-86
2021/06/25 06:05:05;;;;;;;13.10;5.22;;;;;;;42.30;44.85;100642.47;1814799;78;21929;-86
2021/06/25 06:07:31;;;;;;;12.70;5.55;;;;;;;43.22;40.35;100641.31;1815227;79;20994;-87
2021/06/25 06:09:57;;;;;;;12.13;6.10;;;;;;;43.83;38.66;100648.59;1815188;78;20939;-85
2021/06/25 06:12:23;;;;;;;9.50;5.85;;;;;;;43.86;37.10;100647.00;1815310;79;20836;-87
2021/06/25 06:14:50;;;;;;;14.15;5.80;;;;;;;43.72;36.83;100654.25;1815254;79;21574;-85
2021/06/25 06:17:19;;;;;;;14.85;6.25;;;;;;;43.49;36.68;100653.67;1815228;79;21147;-85
2021/06/25 06:19:47;;;;;;;17.77;6.62;;;;;;;43.29;36.93;100644.39;1814204;79;21011;-86
2021/06/25 06:33:15;;;;;;;17.23;6.25;;;;;;;43.09;34.83;100640.75;1815127;79;20959;-85
2021/06/25 06:35:39;;;;;;;20.08;5.85;;;;;;;42.59;36.37;100639.81;1811278;79;21089;-85
2021/06/25 06:38:06;;;;;;;7.65;5.92;;;;;;;42.52;35.54;100637.35;1814969;79;20956;-86
2021/06/25 06:40:33;;;;;;;8.60;5.25;;;;;;;42.90;36.96;100644.37;1751193;80;21074;-85
2021/06/25 06:43:00;;;;;;;14.63;6.20;;;;;;;42.97;34.52;100642.58;1765790;80;20979;-86
2021/06/25 06:45:26;;;;;;;14.73;5.42;;;;;;;42.71;36.10;100644.31;1765940;80;21153;-83
2021/06/25 06:47:52;;;;;;;15.70;6.30;;;;;;;43.27;35.47;100647.73;1765805;81;20899;-85
2021/06/25 06:50:18;;;;;;;26.12;6.47;;;;;;;42.98;34.62;100642.74;1765775;81;20999;-86
2021/06/25 06:52:47;;;;;;;20.45;5.90;;;;;;;43.00;35.44;100646.50;1765758;80;21520;-87
2021/06/25 06:55:16;;;;;;;16.32;6.17;;;;;;;43.42;35.38;100657.69;1744918;81;21254;-85
2021/06/25 06:57:43;;;;;;;16.62;6.70;;;;;;;43.86;33.40;100660.40;1765472;80;21003;-85
2021/06/25 07:00:10;;;;;;;13.18;6.47;;;;;;;43.44;33.20;100654.34;1765645;81;21015;-85
2021/06/25 07:02:41;;;;;;;14.78;5.80;;;;;;;43.52;34.80;100656.95;1765163;80;21050;-84
2021/06/25 07:05:10;;;;;;;11.95;6.30;;;;;;;43.51;34.46;100658.23;1765829;80;21015;-86
2021/06/25 07:07:37;;;;;;;15.28;5.78;;;;;;;43.48;35.06;100656.38;1765515;81;21064;-82
2021/06/25 07:10:06;;;;;;;16.05;5.50;;;;;;;44.17;34.08;100652.16;1765921;80;21019;-86
2021/06/25 07:12:32;;;;;;;13.93;6.72;;;;;;;44.02;33.74;100650.63;1766401;80;21554;-84
2021/06/25 07:14:58;;;;;;;14.98;5.65;;;;;;;43.78;33.55;100647.89;1765744;81;20891;-85
2021/06/25 07:17:24;;;;;;;10.13;5.60;;;;;;;43.34;33.28;100651.46;1765848;81;21056;-88
2021/06/25 07:19:51;;;;;;;13.83;6.12;;;;;;;43.27;34.43;100646.31;1765829;80;21088;-82
2021/06/25 07:22:17;;;;;;;12.78;5.47;;;;;;;43.25;34.79;100653.10;1744567;81;21055;-82
2021/06/25 07:24:43;;;;;;;15.70;5.97;;;;;;;43.39;34.98;100646.50;1765805;80;21018;-87
2021/06/25 07:27:09;;;;;;;12.33;5.37;;;;;;;43.71;34.37;100651.27;1765725;80;21027;-82
2021/06/25 07:29:35;;;;;;;12.00;5.83;;;;;;;44.32;33.52;100649.28;1765784;81;20963;-85
2021/06/25 07:32:02;;;;;;;14.93;6.10;;;;;;;44.66;34.05;100652.64;1765636;81;21113;-84
2021/06/25 07:34:28;;;;;;;14.00;5.85;;;;;;;45.08;31.84;100654.99;1765332;80;21026;-84
2021/06/25 07:36:54;;;;;;;9.68;5.90;;;;;;;44.97;32.03;100659.12;1765817;81;20924;-85
2021/06/25 07:39:20;;;;;;;12.88;5.50;;;;;;;44.85;30.89;100661.05;1762434;80;20973;-84
2021/06/25 07:41:46;;;;;;;14.58;5.75;;;;;;;44.38;31.65;100665.80;1765952;81;20876;-82
2021/06/25 07:44:12;;;;;;;17.55;5.20;;;;;;;44.63;30.16;100665.78;1766083;81;21115;-85
2021/06/25 07:46:38;;;;;;;20.70;5.05;;;;;;;44.58;29.77;100669.97;1766069;81;21013;-91
2021/06/25 07:49:04;;;;;;;14.05;5.00;;;;;;;44.33;28.85;100665.11;1766046;80;20860;-86
2021/06/25 07:51:30;;;;;;;12.40;4.95;;;;;;;44.25;29.01;100674.50;1766139;80;21506;-85
2021/06/25 07:53:57;;;;;;;14.00;4.40;;;;;;;44.14;27.96;100671.62;1765479;81;45342;-84
2021/06/25 07:56:23;;;;;;;14.28;4.40;;;;;;;43.81;27.67;100666.15;1766075;81;21140;-84
2021/06/25 07:58:49;;;;;;;19.25;4.30;;;;;;;43.49;28.19;100665.03;1766060;80;20959;-85
2021/06/25 08:01:15;;;;;;;9.05;4.60;;;;;;;43.45;29.52;100658.77;1765997;81;21025;-86
2021/06/25 08:03:41;;;;;;;11.15;4.58;;;;;;;43.32;29.33;100657.61;1766069;81;20923;-85
2021/06/25 08:06:07;;;;;;;12.33;4.47;;;;;;;43.15;28.79;100645.92;1766098;81;20955;-85
2021/06/25 08:08:33;;;;;;;9.15;4.30;;;;;;;43.16;29.52;100643.26;1766000;80;21129;-83
2021/06/25 08:10:59;;;;;;;9.93;4.40;;;;;;;43.36;29.19;100644.64;1765977;81;21010;-85
2021/06/25 08:13:25;;;;;;;11.43;4.58;;;;;;;43.09;28.67;100641.55;1766148;80;21035;-89
2021/06/25 08:15:51;;;;;;;25.17;5.40;;;;;;;43.42;28.91;100637.02;1766155;80;21632;-85
2021/06/25 08:18:19;;;;;;;19.07;4.78;;;;;;;43.01;28.11;100629.65;1766135;80;20868;-87
2021/06/25 08:20:46;;;;;;;12.50;4.95;;;;;;;42.48;28.67;100629.67;1743219;82;21140;-85
2021/06/25 08:23:12;;;;;;;11.08;3.83;;;;;;;42.25;29.86;100631.81;1745753;82;21067;-83
2021/06/25 08:25:39;;;;;;;6.10;3.87;;;;;;;42.46;29.46;100636.44;1745595;82;21162;-84
2021/06/25 08:28:05;;;;;;;9.70;3.30;;;;;;;42.95;28.41;100632.98;1745694;82;21008;-85
2021/06/25 08:30:32;;;;;;;7.75;3.52;;;;;;;43.07;28.08;100630.54;1745727;82;21000;-85
2021/06/25 08:32:58;;;;;;;15.95;3.77;;;;;;;42.96;27.63;100634.56;1740762;82;21103;-86
2021/06/25 08:35:25;;;;;;;9.43;4.00;;;;;;;42.88;27.31;100636.98;1745508;82;21468;-82
2021/06/25 08:37:53;;;;;;;12.20;3.95;;;;;;;42.75;28.04;100629.38;1745468;82;21011;-84
2021/06/25 08:40:20;;;;;;;10.78;4.17;;;;;;;42.47;27.51;100629.50;1763323;80;20967;-84
2021/06/25 08:42:48;;;;;;;8.88;3.35;;;;;;;42.51;28.29;100629.34;1784924;80;21022;-82
2021/06/25 08:45:16;;;;;;;11.03;3.30;;;;;;;42.63;27.60;100619.81;1785014;80;21063;-85
2021/06/25 08:47:46;;;;;;;9.30;3.15;;;;;;;42.43;28.20;100624.66;1777387;78;21004;-85
2021/06/25 08:50:15;;;;;;;17.10;3.58;;;;;;;42.27;28.53;100632.09;1647620;86;21048;-85
2021/06/25 08:52:47;;;;;;;11.97;3.72;;;;;;;42.04;29.68;100633.00;1647819;87;21504;-86
2021/06/25 08:55:15;;;;;;;12.28;3.58;;;;;;;41.61;29.39;100637.80;1647838;87;21523;-86
2021/06/25 08:57:40;;;;;;;9.65;3.55;;;;;;;41.23;30.60;100632.64;1647858;87;21946;-86
2021/06/25 09:00:13;;;;;;;13.45;3.35;;;;;;;41.01;31.35;100634.97;1647577;87;20909;-82
2021/06/25 09:02:40;;;;;;;11.68;3.47;;;;;;;41.13;31.21;100627.62;1647125;87;21519;-85
2021/06/25 09:05:27;;;;;;;10.58;3.92;;;;;;;41.45;29.96;100630.42;1654437;84;21620;-85
2021/06/25 09:07:57;;;;;;;7.87;3.30;;;;;;;41.64;29.54;100633.24;1659076;84;21038;-86
2021/06/25 09:10:39;;;;;;;12.45;3.77;;;;;;;41.60;30.01;100614.23;1667705;84;21252;-84
2021/06/25 09:13:14;;;;;;;12.82;3.35;;;;;;;41.65;29.21;100614.99;1656675;85;21126;-81
2021/06/25 09:15:42;;;;;;;10.70;3.00;;;;;;;41.76;30.70;100636.52;1656586;86;21095;-84
2021/06/25 09:18:12;;;;;;;9.55;3.22;;;;;;;41.85;28.61;100633.65;1656289;83;21070;-85
2021/06/25 09:20:45;;;;;;;11.57;3.20;;;;;;;41.60;29.00;100631.22;1677988;83;21069;-86
2021/06/25 09:23:27;;;;;;;6.75;2.60;;;;;;;41.60;29.00;100631.22;1676225;83;21200;-85
2021/06/25 09:26:11;;;;;;;23.03;4.63;;;;;;;41.57;28.22;100625.88;1673408;83;21136;-85
2021/06/25 09:28:44;;;;;;;15.28;6.87;;;;;;;41.14;28.40;100636.88;1662104;86;21034;-84
2021/06/25 09:31:23;;;;;;;16.07;7.20;;;;;;;40.62;27.88;100633.80;1662425;86;21094;-84
2021/06/25 09:33:53;;;;;;;15.75;3.60;;;;;;;40.60;30.26;100633.47;1662339;86;21055;-83
2021/06/25 09:36:30;;;;;;;18.75;3.10;;;;;;;40.73;28.54;100633.36;1594206;90;21415;-82
2021/06/25 09:39:14;;;;;;;9.73;3.35;;;;;;;40.54;28.49;100635.34;1566964;91;21035;-83
2021/06/25 09:41:46;;;;;;;8.35;3.50;;;;;;;40.17;30.37;100634.55;1597846;89;21557;-83
2021/06/25 09:44:19;;;;;;;15.55;3.20;;;;;;;40.09;30.19;100631.84;1601620;89;21045;-84
2021/06/25 09:46:51;;;;;;;17.20;3.87;;;;;;;40.03;32.18;100634.33;1616817;87;21102;-83
2021/06/25 09:49:27;;;;;;;15.00;3.30;;;;;;;39.87;30.84;100635.36;1643318;87;21171;-84
2021/06/25 09:51:59;;;;;;;17.12;3.35;;;;;;;39.23;31.20;100636.42;1641012;87;21053;-82
2021/06/25 09:54:27;;;;;;;12.43;3.60;;;;;;;38.85;32.11;100634.52;1643194;87;21484;-84
2021/06/25 10:02:26;;;;;;;16.05;3.77;;;;;;;38.07;33.60;100620.92;1585667;89;21229;-83
2021/06/25 10:05:08;;;;;;;10.55;3.12;;;;;;;38.19;34.11;100622.16;1585833;90;21077;-83
2021/06/25 10:07:32;;;;;;;12.50;3.60;;;;;;;38.33;34.95;100632.20;1582047;90;21085;-82
2021/06/25 10:10:02;;;;;;;17.55;3.87;;;;;;;38.34;34.63;100629.53;1585881;90;21107;-85
2021/06/25 10:12:28;;;;;;;25.92;4.20;;;;;;;38.24;35.43;100621.61;1585795;90;21510;-83
2021/06/25 10:14:55;;;;;;;18.75;3.85;;;;;;;38.28;36.00;100623.68;1565363;90;21046;-85
2021/06/25 10:17:26;;;;;;;16.07;3.65;;;;;;;38.29;35.58;100622.43;1536370;93;21118;-85
2021/06/25 10:19:55;;;;;;;19.32;3.47;;;;;;;38.30;35.92;100619.80;1533562;93;21162;-84
2021/06/25 10:22:26;;;;;;;15.70;3.92;;;;;;;38.33;36.30;100620.30;1502873;95;21149;-83
2021/06/25 10:24:53;;;;;;;17.55;4.30;;;;;;;38.32;36.54;100628.56;1484752;95;21189;-82
2021/06/25 10:27:22;;;;;;;16.07;4.17;;;;;;;37.99;35.67;100618.77;1484683;96;21369;-82
2021/06/25 10:29:51;;;;;;;15.35;3.17;;;;;;;37.93;36.47;100619.92;1484890;95;21082;-84
2021/06/25 10:32:18;;;;;;;16.77;3.33;;;;;;;37.84;36.56;100613.55;1492313;92;21081;-86
2021/06/25 10:34:46;;;;;;;18.17;3.80;;;;;;;37.88;36.99;100610.62;1559393;89;21083;-86
2021/06/25 10:37:25;;;;;;;25.62;3.50;;;;;;;38.02;37.36;100615.06;1628209;88;21012;-85
2021/06/25 10:39:51;;;;;;;20.62;3.75;;;;;;;38.13;36.37;100612.70;1627808;87;21918;-86
2021/06/25 10:42:18;;;;;;;10.98;3.17;;;;;;;38.00;35.47;100618.94;1623877;88;21029;-85
2021/06/25 10:44:54;;;;;;;21.17;3.67;;;;;;;37.76;34.90;100619.20;1624032;88;21606;-86
2021/06/25 10:47:32;;;;;;;17.30;3.40;;;;;;;37.69;34.39;100621.62;1628131;83;21024;-83
2021/06/25 10:50:09;;;;;;;23.83;4.05;;;;;;;37.95;35.46;100611.86;1716473;83;20987;-86
2021/06/25 10:52:46;;;;;;;16.17;4.20;;;;;;;38.20;35.71;100612.47;1716317;82;21038;-85
2021/06/25 10:55:16;;;;;;;21.48;3.25;;;;;;;38.28;34.23;100617.27;1714598;83;21090;-83
2021/06/25 10:57:57;;;;;;;16.67;3.25;;;;;;;38.46;33.86;100623.13;1720183;79;21018;-86
2021/06/25 11:00:37;;;;;;;29.25;4.00;;;;;;;38.27;33.28;100617.89;1809788;79;21257;-86
2021/06/25 11:03:03;;;;;;;23.50;3.80;;;;;;;38.36;34.43;100617.99;1751394;81;21067;-86
2021/06/25 11:05:34;;;;;;;20.17;3.08;;;;;;;38.48;35.68;100624.09;1757447;81;21048;-83
2021/06/25 11:08:16;;;;;;;20.27;2.83;;;;;;;38.21;33.28;100622.51;1751440;82;21015;-86
2021/06/25 11:10:52;;;;;;;;;;;;;;;38.05;33.71;100616.34;1749833;82;21551;-87
2021/06/25 11:13:23;;;;;;;24.12;3.37;;;;;;;38.24;33.71;100615.16;1721616;83;20148;-85
2021/06/25 11:15:57;;;;;;;22.02;4.03;;;;;;;38.36;34.56;100617.99;1721474;83;21498;-87
2021/06/25 11:18:30;;;;;;;31.07;4.03;;;;;;;38.30;34.19;100610.54;1721393;82;21148;-86
2021/06/25 11:21:08;;;;;;;21.97;3.80;;;;;;;38.24;34.08;100606.72;1721540;83;21017;-87
2021/06/25 11:23:44;;;;;;;14.00;3.25;;;;;;;38.47;35.27;100609.83;1725640;82;21327;-84
2021/06/25 11:26:24;;;;;;;28.70;3.75;;;;;;;38.77;34.28;100607.00;1735889;82;21027;-85
2021/06/25 11:28:54;;;;;;;26.93;3.87;;;;;;;38.78;33.21;100599.52;1735988;82;21607;-86
2021/06/25 11:31:24;;;;;;;28.10;4.08;;;;;;;39.00;33.57;100593.94;1711438;83;21068;-87
2021/06/25 11:33:57;;;;;;;32.25;4.50;;;;;;;38.88;33.57;100600.41;1699404;84;21036;-86
2021/06/25 11:36:52;;;;;;;33.73;3.67;;;;;;;38.89;34.55;100600.59;1741714;82;21016;-87